Time;durP1;ratioP1;P1;durP2;ratioP2;P2;SDS_P1;SDS_P2;PMS_P1;PMS_P2;Temp;Humidity;BMP_temperature;BMP_pressure;BME280_temperature;BME280_humidity;BME280_pressure;Samples;Min_cycle;Max_cycle;Signal;HPM_P1;HPM_P2
2023/10/16 00:01:27;;;;;;;13.82;1.90;;;;;;;-147.98;100.00;69253.78;4993433;28;20425;-82
2023/10/16 00:04:00;;;;;;;9.30;1.40;;;;;;;-147.98;100.00;69253.78;5007928;28;20421;-80
2023/10/16 00:06:38;;;;;;;6.97;1.40;;;;;;;-147.98;100.00;69253.78;4994031;28;20412;-81
2023/10/16 00:09:14;;;;;;;8.02;1.40;;;;;;;-147.98;100.00;69253.78;5009782;28;20410;-81
2023/10/16 00:11:47;;;;;;;10.07;1.60;;;;;;;-147.98;100.00;69253.78;5011134;28;20417;-81
2023/10/16 00:14:23;;;;;;;8.93;1.77;;;;;;;-147.98;100.00;69253.78;5005996;28;20424;-80
2023/10/16 00:16:56;;;;;;;11.00;1.58;;;;;;;-147.98;100.00;69253.78;4991859;28;20432;-80
2023/10/16 00:19:33;;;;;;;12.67;1.67;;;;;;;-147.98;100.00;69253.78;5003254;28;20438;-81
2023/10/16 00:22:13;;;;;;;8.75;1.33;;;;;;;-147.98;100.00;69253.78;5006141;28;20429;-82
2023/10/16 00:24:45;;;;;;;5.57;1.33;;;;;;;-147.98;100.00;69253.78;5005389;28;20439;-81
2023/10/16 00:27:15;;;;;;;6.90;1.42;;;;;;;-147.98;100.00;69253.78;5004801;28;20426;-81
2023/10/16 00:29:43;;;;;;;7.60;1.60;;;;;;;-147.98;100.00;69253.78;5000750;28;20438;-80
2023/10/16 00:32:12;;;;;;;8.57;1.40;;;;;;;-147.98;100.00;69253.78;4987145;28;20438;-82
2023/10/16 00:34:40;;;;;;;8.80;1.70;;;;;;;-147.98;100.00;69253.78;4984422;28;20455;-82
2023/10/16 00:37:14;;;;;;;7.10;1.40;;;;;;;-147.98;100.00;69253.78;4990441;28;20945;-81
2023/10/16 00:39:50;;;;;;;8.35;1.40;;;;;;;-147.98;100.00;69253.78;4988837;28;20461;-80
2023/10/16 00:42:18;;;;;;;9.80;1.50;;;;;;;-147.98;100.00;69253.78;5008391;28;21077;-80
2023/10/16 00:44:59;;;;;;;8.35;1.50;;;;;;;-147.98;100.00;69253.78;5005516;28;20762;-80
2023/10/16 00:47:28;;;;;;;6.78;1.50;;;;;;;-147.98;100.00;69253.78;4990572;28;20429;-82
2023/10/16 00:50:03;;;;;;;9.07;1.60;;;;;;;-147.98;100.00;69253.78;4992558;28;20429;-79
2023/10/16 00:52:36;;;;;;;4.43;1.38;;;;;;;-147.98;100.00;69253.78;5005155;28;20436;-82
2023/10/16 00:55:12;;;;;;;5.63;1.30;;;;;;;-147.98;100.00;69253.78;5001437;28;20429;-78
2023/10/16 00:57:47;;;;;;;9.18;1.50;;;;;;;-147.98;100.00;69253.78;4989356;28;20422;-78
2023/10/16 01:00:21;;;;;;;7.57;1.60;;;;;;;-147.98;100.00;69253.78;5004743;28;20799;-81
2023/10/16 01:02:54;;;;;;;8.27;1.48;;;;;;;-147.98;100.00;69253.78;4990109;28;20427;-80
2023/10/16 01:05:24;;;;;;;9.93;1.60;;;;;;;-147.98;100.00;69253.78;5003460;28;20436;-80
2023/10/16 01:07:58;;;;;;;5.07;1.40;;;;;;;-147.98;100.00;69253.78;4986842;28;21225;-80
2023/10/16 01:10:33;;;;;;;7.65;1.48;;;;;;;-147.98;100.00;69253.78;5011122;28;20425;-80
2023/10/16 01:13:03;;;;;;;11.73;2.00;;;;;;;-147.98;100.00;69253.78;4991472;28;20433;-80
2023/10/16 01:15:34;;;;;;;8.18;1.67;;;;;;;-147.98;100.00;69253.78;5003852;28;21209;-80
2023/10/16 01:18:06;;;;;;;8.38;1.63;;;;;;;-147.98;100.00;69253.78;5003272;28;20437;-79
2023/10/16 01:20:34;;;;;;;7.50;2.03;;;;;;;-147.98;100.00;69253.78;5003015;28;20453;-81
2023/10/16 01:23:08;;;;;;;8.30;1.95;;;;;;;-147.98;100.00;69253.78;4991832;28;20443;-81
2023/10/16 01:25:37;;;;;;;10.32;1.90;;;;;;;-147.98;100.00;69253.78;4989341;28;20448;-80
2023/10/16 01:28:06;;;;;;;9.30;1.80;;;;;;;-147.98;100.00;69253.78;5001552;28;20931;-81
2023/10/16 01:30:41;;;;;;;9.20;1.85;;;;;;;-147.98;100.00;69253.78;4999184;28;20426;-82
2023/10/16 01:33:16;;;;;;;5.90;1.85;;;;;;;-147.98;100.00;69253.78;4989395;28;20424;-82
2023/10/16 01:35:50;;;;;;;7.37;2.10;;;;;;;-147.98;100.00;69253.78;5008039;28;21084;-83
2023/10/16 01:38:26;;;;;;;5.13;1.80;;;;;;;-147.98;100.00;69253.78;5000264;28;20429;-80
2023/10/16 01:41:09;;;;;;;6.90;1.85;;;;;;;-147.98;100.00;69253.78;5005527;28;20424;-81
2023/10/16 01:43:44;;;;;;;7.80;2.00;;;;;;;-147.98;100.00;69253.78;5008474;28;20433;-80
2023/10/16 01:46:14;;;;;;;9.47;1.97;;;;;;;-147.98;100.00;69253.78;5003830;28;20425;-81
2023/10/16 01:48:49;;;;;;;7.43;2.00;;;;;;;-147.98;100.00;69253.78;4991832;28;20907;-81
2023/10/16 01:51:22;;;;;;;7.43;2.05;;;;;;;-147.98;100.00;69253.78;5007987;28;20440;-81
2023/10/16 01:53:57;;;;;;;6.50;2.03;;;;;;;-147.98;100.00;69253.78;5010893;28;21185;-80
2023/10/16 01:56:27;;;;;;;5.80;1.90;;;;;;;-147.98;100.00;69253.78;4992768;28;20444;-81
2023/10/16 01:59:01;;;;;;;8.27;2.20;;;;;;;-147.98;100.00;69253.78;5010629;28;20421;-81
2023/10/16 02:01:34;;;;;;;9.30;2.10;;;;;;;-147.98;100.00;69253.78;4992426;28;21259;-81
2023/10/16 02:04:08;;;;;;;10.00;2.15;;;;;;;-147.98;100.00;69253.78;5002174;28;20428;-80
2023/10/16 02:06:38;;;;;;;5.28;1.90;;;;;;;-147.98;100.00;69253.78;5011907;28;20820;-82
2023/10/16 02:09:15;;;;;;;7.15;1.73;;;;;;;-147.98;100.00;69253.78;4995806;28;20401;-81
2023/10/16 02:11:49;;;;;;;9.30;2.30;;;;;;;-147.98;100.00;69253.78;5002305;28;20440;-81
2023/10/16 02:14:17;;;;;;;9.82;2.28;;;;;;;-147.98;100.00;69253.78;5004821;28;20411;-81
2023/10/16 02:16:51;;;;;;;7.78;1.80;;;;;;;-147.98;100.00;69253.78;4994719;28;20421;-80
2023/10/16 02:19:25;;;;;;;9.57;2.10;;;;;;;-147.98;100.00;69253.78;4991508;28;20433;-80
2023/10/16 02:21:58;;;;;;;7.97;1.80;;;;;;;-147.98;100.00;69253.78;5007582;28;20429;-80
2023/10/16 02:24:28;;;;;;;12.38;2.20;;;;;;;-147.98;100.00;69253.78;4993724;28;20432;-80
2023/10/16 02:27:02;;;;;;;8.95;2.30;;;;;;;-147.98;100.00;69253.78;5006669;28;20433;-80
2023/10/16 02:29:31;;;;;;;7.50;1.97;;;;;;;-147.98;100.00;69253.78;5007476;28;20421;-80
2023/10/16 02:32:05;;;;;;;9.10;2.15;;;;;;;-147.98;100.00;69253.78;5007912;28;20439;-80
2023/10/16 02:34:38;;;;;;;7.25;2.30;;;;;;;-147.98;100.00;69253.78;4993353;28;20909;-82
2023/10/16 02:37:14;;;;;;;8.98;2.28;;;;;;;-147.98;100.00;69253.78;4993669;28;20425;-81
2023/10/16 02:39:50;;;;;;;8.18;1.98;;;;;;;-147.98;100.00;69253.78;4991809;28;20837;-81
2023/10/16 02:42:19;;;;;;;8.00;1.88;;;;;;;-147.98;100.00;69253.78;4981690;28;20438;-81
2023/10/16 02:44:49;;;;;;;8.50;2.10;;;;;;;-147.98;100.00;69253.78;5008552;28;20420;-80
2023/10/16 02:47:25;;;;;;;6.32;1.73;;;;;;;-147.98;100.00;69253.78;5008028;28;20440;-82
2023/10/16 02:49:53;;;;;;;6.90;1.80;;;;;;;-147.98;100.00;69253.78;4994249;28;20436;-80
2023/10/16 02:52:21;;;;;;;6.50;1.90;;;;;;;-147.98;100.00;69253.78;4991573;28;20823;-80
2023/10/16 02:54:56;;;;;;;8.70;2.00;;;;;;;-147.98;100.00;69253.78;5010769;28;20440;-80
2023/10/16 02:57:30;;;;;;;11.30;2.15;;;;;;;-147.98;100.00;69253.78;4990572;28;20441;-81
2023/10/16 03:00:07;;;;;;;8.32;1.83;;;;;;;-147.98;100.00;69253.78;4995444;28;20432;-79
2023/10/16 03:02:35;;;;;;;7.32;2.03;;;;;;;-147.98;100.00;69253.78;5001699;28;20418;-80
2023/10/16 03:05:11;;;;;;;9.35;2.08;;;;;;;-147.98;100.00;69253.78;4990961;28;20918;-80
2023/10/16 03:07:44;;;;;;;6.20;1.80;;;;;;;-147.98;100.00;69253.78;5007113;28;20777;-82
2023/10/16 03:10:16;;;;;;;7.72;2.20;;;;;;;-147.98;100.00;69253.78;4991535;28;20457;-80
2023/10/16 03:12:50;;;;;;;6.97;1.95;;;;;;;-147.98;100.00;69253.78;5003693;28;20434;-81
2023/10/16 03:15:28;;;;;;;6.20;2.00;;;;;;;-147.98;100.00;69253.78;4993189;28;20428;-82
2023/10/16 03:17:57;;;;;;;10.13;2.70;;;;;;;-147.98;100.00;69253.78;4987252;28;20429;-81
2023/10/16 03:20:35;;;;;;;6.57;2.10;;;;;;;-147.98;100.00;69253.78;4993746;28;20444;-81
2023/10/16 03:23:08;;;;;;;11.40;2.77;;;;;;;-147.98;100.00;69253.78;5007449;28;20936;-82
2023/10/16 03:25:51;;;;;;;10.60;2.88;;;;;;;-147.98;100.00;69253.78;5004625;28;20543;-81
2023/10/16 03:28:26;;;;;;;8.57;2.80;;;;;;;-147.98;100.00;69253.78;4997247;28;20426;-81
2023/10/16 03:31:02;;;;;;;10.93;2.77;;;;;;;-147.98;100.00;69253.78;5006460;28;20425;-79
2023/10/16 03:33:35;;;;;;;9.80;3.30;;;;;;;-147.98;100.00;69253.78;4992459;28;20436;-83
2023/10/16 03:36:09;;;;;;;9.18;2.90;;;;;;;-147.98;100.00;69253.78;4992397;28;20430;-80
2023/10/16 03:38:42;;;;;;;10.40;3.47;;;;;;;-147.98;100.00;69253.78;5006543;28;20430;-81
2023/10/16 03:41:27;;;;;;;11.45;3.42;;;;;;;-147.98;100.00;69253.78;5003675;28;20433;-80
2023/10/16 03:43:58;;;;;;;12.52;3.65;;;;;;;-147.98;100.00;69253.78;5006537;28;20885;-81
2023/10/16 03:46:27;;;;;;;10.80;3.63;;;;;;;-147.98;100.00;69253.78;4993800;28;20801;-82
2023/10/16 03:48:56;;;;;;;10.15;3.25;;;;;;;-147.98;100.00;69253.78;5005222;28;20437;-81
2023/10/16 03:51:29;;;;;;;11.63;3.40;;;;;;;-147.98;100.00;69253.78;4990059;28;21005;-84
2023/10/16 03:54:02;;;;;;;10.88;3.15;;;;;;;-147.98;100.00;69253.78;5003916;28;20429;-80
2023/10/16 03:56:32;;;;;;;9.02;3.10;;;;;;;-147.98;100.00;69253.78;4988529;28;20432;-82
2023/10/16 03:59:06;;;;;;;10.40;3.13;;;;;;;-147.98;100.00;69253.78;4992356;28;20455;-81
2023/10/16 04:01:39;;;;;;;8.35;3.10;;;;;;;-147.98;100.00;69253.78;4991089;28;20432;-82
2023/10/16 04:04:15;;;;;;;15.68;3.78;;;;;;;-147.98;100.00;69253.78;5001235;28;20424;-81
2023/10/16 04:06:43;;;;;;;9.10;3.47;;;;;;;-147.98;100.00;69253.78;5003507;28;20430;-81
2023/10/16 04:09:17;;;;;;;10.57;3.80;;;;;;;-147.98;100.00;69253.78;5007030;28;20441;-81
2023/10/16 04:11:55;;;;;;;10.05;3.45;;;;;;;-147.98;100.00;69253.78;4990533;28;20418;-80
2023/10/16 04:14:44;;;;;;;10.25;3.40;;;;;;;-147.98;100.00;69253.78;4982689;28;20433;-79
2023/10/16 04:17:12;;;;;;;10.50;3.78;;;;;;;-147.98;100.00;69253.78;5007598;28;20440;-83
2023/10/16 04:19:52;;;;;;;11.02;3.40;;;;;;;-147.98;100.00;69253.78;4990871;28;20433;-81
2023/10/16 04:22:27;;;;;;;10.05;3.42;;;;;;;-147.98;100.00;69253.78;5008545;28;20829;-79
2023/10/16 04:25:02;;;;;;;9.93;3.50;;;;;;;-147.98;100.00;69253.78;4991447;28;20957;-81
2023/10/16 04:27:36;;;;;;;12.77;3.93;;;;;;;-147.98;100.00;69253.78;4991560;28;20432;-80
2023/10/16 04:33:13;;;;;;;9.18;3.60;;;;;;;-147.98;100.00;69253.78;4989965;28;20444;-80
2023/10/16 04:36:49;;;;;;;11.97;4.00;;;;;;;-147.98;100.00;69253.78;4998643;28;20498;-80
2023/10/16 04:38:55;;;;;;;11.15;4.55;;;;;;;-147.98;100.00;69253.78;5002858;28;20429;-79
2023/10/16 04:44:49;;;;;;;11.50;4.40;;;;;;;-147.98;100.00;69253.78;4988453;28;20452;-81
2023/10/16 04:47:17;;;;;;;11.88;4.28;;;;;;;-147.98;100.00;69253.78;5006913;28;20935;-80
2023/10/16 04:49:59;;;;;;;10.00;4.32;;;;;;;-147.98;100.00;69253.78;5003640;28;20810;-80
2023/10/16 04:58:38;;;;;;;11.90;5.20;;;;;;;-147.98;100.00;69253.78;5006669;28;20424;-81
2023/10/16 05:01:33;;;;;;;13.90;5.30;;;;;;;-147.98;100.00;69253.78;4988058;28;21142;-81
2023/10/16 05:04:34;;;;;;;14.80;6.00;;;;;;;-147.98;100.00;69253.78;4989908;28;20959;-83
2023/10/16 05:07:16;;;;;;;13.63;5.95;;;;;;;-147.98;100.00;69253.78;5005137;28;20530;-81
2023/10/16 05:10:12;;;;;;;14.43;5.47;;;;;;;-147.98;100.00;69253.78;4992623;28;20419;-79
2023/10/16 05:15:51;;;;;;;13.20;5.57;;;;;;;-147.98;100.00;69253.78;4984756;28;20432;-83
2023/10/16 05:21:51;;;;;;;16.38;6.32;;;;;;;-147.98;100.00;69253.78;4990679;28;20425;-80
2023/10/16 06:15:20;;;;;;;17.85;9.10;;;;;;;-147.98;100.00;69253.78;5002728;28;20435;-80
2023/10/16 06:17:51;;;;;;;18.55;9.27;;;;;;;-147.98;100.00;69253.78;5010829;28;20439;-80
2023/10/16 06:20:25;;;;;;;23.02;9.80;;;;;;;-147.98;100.00;69253.78;4993218;28;20460;-83
2023/10/16 06:22:53;;;;;;;21.60;9.93;;;;;;;-147.98;100.00;69253.78;5005782;28;20553;-82
2023/10/16 06:25:29;;;;;;;20.92;9.80;;;;;;;-147.98;100.00;69253.78;4994338;28;20443;-83
2023/10/16 06:27:59;;;;;;;22.27;10.55;;;;;;;-147.98;100.00;69253.78;4993584;28;20445;-81
2023/10/16 06:30:27;;;;;;;22.05;10.38;;;;;;;-147.98;100.00;69253.78;5007796;28;20428;-81
2023/10/16 06:33:02;;;;;;;19.27;11.10;;;;;;;-147.98;100.00;69253.78;5002748;28;20429;-82
2023/10/16 06:35:30;;;;;;;23.77;10.73;;;;;;;-147.98;100.00;69253.78;4988035;28;20778;-81
2023/10/16 06:38:10;;;;;;;20.50;10.50;;;;;;;-147.98;100.00;69253.78;4994024;28;20443;-81
2023/10/16 06:40:45;;;;;;;19.43;10.57;;;;;;;-147.98;100.00;69253.78;4994135;28;20785;-81
2023/10/16 06:43:25;;;;;;;18.45;10.48;;;;;;;-147.98;100.00;69253.78;5007978;28;20508;-81
2023/10/16 06:46:09;;;;;;;25.73;10.80;;;;;;;-147.98;100.00;69253.78;4988205;28;20432;-80
2023/10/16 06:48:48;;;;;;;20.83;9.97;;;;;;;-147.98;100.00;69253.78;5007236;28;20432;-81
2023/10/16 06:51:25;;;;;;;20.42;10.13;;;;;;;-147.98;100.00;69253.78;5005779;28;20430;-81
2023/10/16 06:54:01;;;;;;;19.75;10.40;;;;;;;-147.98;100.00;69253.78;5006060;28;20442;-82
2023/10/16 06:56:38;;;;;;;22.48;10.68;;;;;;;-147.98;100.00;69253.78;4990808;28;20929;-84
2023/10/16 06:59:16;;;;;;;24.55;10.05;;;;;;;-147.98;100.00;69253.78;5003715;28;20440;-84
2023/10/16 07:01:46;;;;;;;20.83;10.77;;;;;;;-147.98;100.00;69253.78;4990458;28;21046;-82
2023/10/16 07:04:15;;;;;;;21.23;10.17;;;;;;;-147.98;100.00;69253.78;4992701;28;20527;-82
2023/10/16 07:06:45;;;;;;;19.92;10.73;;;;;;;-147.98;100.00;69253.78;4991848;28;20448;-80
2023/10/16 07:09:19;;;;;;;22.38;10.57;;;;;;;-147.98;100.00;69253.78;5008863;28;20424;-81
2023/10/16 07:11:54;;;;;;;22.27;9.88;;;;;;;-147.98;100.00;69253.78;5005681;28;20433;-81
2023/10/16 07:14:27;;;;;;;20.15;9.50;;;;;;;-147.98;100.00;69253.78;4995760;28;20443;-82
2023/10/16 07:17:03;;;;;;;19.42;11.25;;;;;;;-147.98;100.00;69253.78;5008338;28;20444;-81
2023/10/16 07:19:31;;;;;;;20.67;10.43;;;;;;;-147.98;100.00;69253.78;4989833;28;21022;-80
2023/10/16 07:22:00;;;;;;;20.60;9.98;;;;;;;-147.98;100.00;69253.78;4991661;28;20442;-80
2023/10/16 07:24:34;;;;;;;21.13;9.95;;;;;;;-147.98;100.00;69253.78;4989725;28;20417;-79
2023/10/16 07:27:12;;;;;;;21.30;10.30;;;;;;;-147.98;100.00;69253.78;5003044;28;20523;-82
2023/10/16 07:29:41;;;;;;;22.88;10.25;;;;;;;-147.98;100.00;69253.78;5000985;28;20422;-79
2023/10/16 07:32:09;;;;;;;21.88;9.48;;;;;;;-147.98;100.00;69253.78;5003516;28;20522;-79
2023/10/16 07:34:38;;;;;;;16.00;9.27;;;;;;;-147.98;100.00;69253.78;4990336;28;20451;-80
2023/10/16 07:37:13;;;;;;;18.17;9.30;;;;;;;-147.98;100.00;69253.78;4984710;28;20427;-79
2023/10/16 07:39:46;;;;;;;21.50;8.80;;;;;;;-147.98;100.00;69253.78;4986363;28;20428;-81
2023/10/16 07:42:16;;;;;;;18.83;9.30;;;;;;;-147.98;100.00;69253.78;4981615;28;20772;-82
2023/10/16 07:44:45;;;;;;;20.02;9.07;;;;;;;-147.98;100.00;69253.78;4984787;28;20817;-78
2023/10/16 07:47:18;;;;;;;15.07;8.60;;;;;;;-147.98;100.00;69253.78;5008494;28;20428;-78
2023/10/16 07:49:46;;;;;;;19.27;8.70;;;;;;;-147.98;100.00;69253.78;4992745;28;20472;-78
2023/10/16 07:52:19;;;;;;;17.25;8.60;;;;;;;-147.98;100.00;69253.78;4965660;28;20442;-83
2023/10/16 07:54:48;;;;;;;16.33;8.60;;;;;;;-147.98;100.00;69253.78;4988177;28;20442;-79
2023/10/16 07:57:24;;;;;;;16.77;8.85;;;;;;;-147.98;100.00;69253.78;4992442;28;20442;-83
2023/10/16 07:59:57;;;;;;;15.48;8.45;;;;;;;-147.98;100.00;69253.78;4980557;28;20426;-84
2023/10/16 08:02:25;;;;;;;17.20;8.50;;;;;;;-147.98;100.00;69253.78;4987577;28;20428;-80
2023/10/16 08:04:59;;;;;;;18.35;8.52;;;;;;;-147.98;100.00;69253.78;4980041;28;20442;-84
2023/10/16 08:07:46;;;;;;;21.00;8.60;;;;;;;-147.98;100.00;69253.78;4965751;28;20434;-83
2023/10/16 08:13:24;;;;;;;16.77;8.70;;;;;;;-147.98;100.00;69253.78;4957595;28;20448;-79
2023/10/16 08:15:55;;;;;;;19.83;9.93;;;;;;;-147.98;100.00;69253.78;4978782;28;21442;-81
2023/10/16 08:18:29;;;;;;;19.00;7.97;;;;;;;-147.98;100.00;69253.78;4976534;28;20452;-83
2023/10/16 08:21:06;;;;;;;17.27;7.90;;;;;;;-147.98;100.00;69253.78;4983301;28;20414;-82
2023/10/16 08:23:38;;;;;;;18.08;7.97;;;;;;;-147.98;100.00;69253.78;4961652;28;20437;-82
2023/10/16 08:26:14;;;;;;;15.03;7.93;;;;;;;-147.98;100.00;69253.78;4980638;28;21061;-80
2023/10/16 08:28:49;;;;;;;15.43;7.15;;;;;;;-147.98;100.00;69253.78;4967862;28;20426;-78
2023/10/16 08:31:26;;;;;;;13.93;6.87;;;;;;;-147.98;100.00;69253.78;4985892;28;20497;-84
2023/10/16 08:33:59;;;;;;;15.40;7.18;;;;;;;-147.98;100.00;69253.78;4981326;28;20438;-83
2023/10/16 08:36:29;;;;;;;14.40;6.93;;;;;;;-147.98;100.00;69253.78;4984748;28;20416;-85
2023/10/16 08:39:08;;;;;;;16.33;6.63;;;;;;;-147.98;100.00;69253.78;4979357;28;20447;-83
2023/10/16 08:41:45;;;;;;;12.38;6.53;;;;;;;-147.98;100.00;69253.78;4984239;28;20464;-79
2023/10/16 08:44:22;;;;;;;12.68;6.40;;;;;;;-147.98;100.00;69253.78;4979948;28;20437;-84
2023/10/16 08:49:39;;;;;;;12.68;6.10;;;;;;;-147.98;100.00;69253.78;4961780;28;20438;-83
2023/10/16 08:52:20;;;;;;;13.77;6.78;;;;;;;-147.98;100.00;69253.78;4955323;28;20463;-80
2023/10/16 08:55:14;;;;;;;15.32;6.53;;;;;;;-147.98;100.00;69253.78;4978370;28;20417;-81
2023/10/16 08:57:43;;;;;;;12.02;6.13;;;;;;;-147.98;100.00;69253.78;4966575;28;20451;-83
2023/10/16 09:00:19;;;;;;;14.45;6.30;;;;;;;-147.98;100.00;69253.78;4989188;28;20424;-79
2023/10/16 09:02:52;;;;;;;19.80;10.63;;;;;;;-147.98;100.00;69253.78;4962988;28;20441;-80
2023/10/16 09:05:20;;;;;;;13.90;5.78;;;;;;;-147.98;100.00;69253.78;4963828;28;20445;-81
2023/10/16 09:07:49;;;;;;;16.08;6.15;;;;;;;-147.98;100.00;69253.78;4992818;28;20433;-81
2023/10/16 09:10:23;;;;;;;14.00;5.97;;;;;;;-147.98;100.00;69253.78;5009909;28;20424;-82
2023/10/16 09:13:13;;;;;;;10.95;5.30;;;;;;;-147.98;100.00;69253.78;4989283;28;20440;-81
2023/10/16 09:15:46;;;;;;;12.32;5.22;;;;;;;-147.98;100.00;69253.78;4989639;28;20443;-81
2023/10/16 09:18:21;;;;;;;8.30;4.55;;;;;;;-147.98;100.00;69253.78;4999720;28;20422;-81
2023/10/16 09:21:00;;;;;;;8.88;4.85;;;;;;;-147.98;100.00;69253.78;5006867;28;20421;-80
2023/10/16 09:23:36;;;;;;;9.93;4.30;;;;;;;-147.98;100.00;69253.78;5007486;28;20432;-81
2023/10/16 09:26:10;;;;;;;12.27;4.23;;;;;;;-147.98;100.00;69253.78;4992801;28;20421;-82
2023/10/16 09:28:44;;;;;;;8.82;3.60;;;;;;;-147.98;100.00;69253.78;4990531;28;20432;-80
2023/10/16 09:31:18;;;;;;;8.63;3.50;;;;;;;-147.98;100.00;69253.78;5004658;28;20449;-81
2023/10/16 09:33:51;;;;;;;11.45;3.40;;;;;;;-147.98;100.00;69253.78;4992025;28;20417;-80
2023/10/16 09:36:21;;;;;;;10.20;3.40;;;;;;;-147.98;100.00;69253.78;5005560;28;20444;-82
2023/10/16 09:38:56;;;;;;;10.60;3.50;;;;;;;-147.98;100.00;69253.78;5008410;28;20432;-79
2023/10/16 09:41:42;;;;;;;8.15;3.25;;;;;;;-147.98;100.00;69253.78;5000235;28;20433;-81
2023/10/16 09:47:30;;;;;;;11.80;3.97;;;;;;;-147.98;100.00;69253.78;4978750;28;20433;-80
2023/10/16 09:50:00;;;;;;;8.70;3.70;;;;;;;-147.98;100.00;69253.78;4990658;28;20796;-81
2023/10/16 09:52:33;;;;;;;8.57;3.10;;;;;;;-147.98;100.00;69253.78;5001107;28;20428;-80
2023/10/16 09:55:05;;;;;;;8.80;2.80;;;;;;;-147.98;100.00;69253.78;4988834;28;20755;-79
2023/10/16 09:57:46;;;;;;;7.87;3.30;;;;;;;-147.98;100.00;69253.78;5009972;28;20435;-80
2023/10/16 10:00:31;;;;;;;7.30;3.50;;;;;;;-147.98;100.00;69253.78;5005307;28;20422;-81
2023/10/16 10:03:11;;;;;;;8.93;3.50;;;;;;;-147.98;100.00;69253.78;5002853;28;20426;-80
2023/10/16 10:05:55;;;;;;;7.97;3.47;;;;;;;-147.98;100.00;69253.78;5003069;28;20417;-80
2023/10/16 10:08:38;;;;;;;5.80;2.80;;;;;;;-147.98;100.00;69253.78;4990805;28;20901;-80
2023/10/16 10:11:17;;;;;;;6.60;2.30;;;;;;;-147.98;100.00;69253.78;5012616;28;20809;-80
2023/10/16 10:14:09;;;;;;;8.05;2.30;;;;;;;-147.98;100.00;69253.78;4994605;28;20424;-79
2023/10/16 10:16:40;;;;;;;7.10;2.58;;;;;;;-147.98;100.00;69253.78;4989297;28;20433;-81
2023/10/16 10:19:24;;;;;;;7.18;2.30;;;;;;;-147.98;100.00;69253.78;4988452;28;20479;-79
2023/10/16 10:21:58;;;;;;;7.47;2.78;;;;;;;-147.98;100.00;69253.78;4996726;28;20428;-81
2023/10/16 10:24:31;;;;;;;8.45;2.55;;;;;;;-147.98;100.00;69253.78;4989576;28;20425;-80
2023/10/16 10:27:02;;;;;;;7.93;2.25;;;;;;;-147.98;100.00;69253.78;5007037;28;20431;-80
2023/10/16 10:29:35;;;;;;;6.55;1.73;;;;;;;-147.98;100.00;69253.78;4993304;28;20422;-79
2023/10/16 10:32:12;;;;;;;8.77;1.60;;;;;;;-147.98;100.00;69253.78;4985504;28;20431;-79
2023/10/16 10:34:47;;;;;;;6.90;1.80;;;;;;;-147.98;100.00;69253.78;4992981;28;20421;-80
2023/10/16 10:37:45;;;;;;;6.18;1.77;;;;;;;-147.98;100.00;69253.78;5013560;28;20433;-82
2023/10/16 10:40:21;;;;;;;5.70;2.03;;;;;;;-147.98;100.00;69253.78;4992155;28;20451;-80
2023/10/16 10:42:55;;;;;;;10.68;4.00;;;;;;;-147.98;100.00;69253.78;4989181;28;20441;-82
2023/10/16 10:45:34;;;;;;;11.77;6.03;;;;;;;-147.98;100.00;69253.78;4990384;28;21271;-82
2023/10/16 10:48:06;;;;;;;11.77;5.23;;;;;;;-147.98;100.00;69253.78;4987762;28;20770;-84
2023/10/16 10:50:45;;;;;;;7.28;2.13;;;;;;;-147.98;100.00;69253.78;4976713;28;21014;-84
2023/10/16 10:53:20;;;;;;;8.35;2.63;;;;;;;-147.98;100.00;69253.78;4983306;28;20441;-83
2023/10/16 10:55:59;;;;;;;8.52;1.80;;;;;;;-147.98;100.00;69253.78;4985971;28;20444;-82
2023/10/16 10:58:31;;;;;;;5.88;1.50;;;;;;;-147.98;100.00;69253.78;4982208;28;20428;-80
2023/10/16 11:01:18;;;;;;;9.55;3.05;;;;;;;-147.98;100.00;69253.78;4965471;28;20437;-81
2023/10/16 11:03:53;;;;;;;17.30;10.10;;;;;;;-147.98;100.00;69253.78;4984548;28;20431;-86
2023/10/16 11:06:39;;;;;;;19.60;10.98;;;;;;;-147.98;100.00;69253.78;4977162;28;20428;-84
2023/10/16 11:09:12;;;;;;;6.80;1.60;;;;;;;-147.98;100.00;69253.78;4968811;28;20445;-86
2023/10/16 11:11:47;;;;;;;7.95;2.17;;;;;;;-147.98;100.00;69253.78;4961563;28;21333;-88
2023/10/16 11:14:16;;;;;;;9.40;2.22;;;;;;;-147.98;100.00;69253.78;4978454;28;20448;-85
2023/10/16 11:16:45;;;;;;;7.68;1.63;;;;;;;-147.98;100.00;69253.78;4961048;28;20430;-84
2023/10/16 11:19:28;;;;;;;6.68;1.90;;;;;;;-147.98;100.00;69253.78;4961583;28;20437;-87
2023/10/16 11:21:57;;;;;;;5.88;1.42;;;;;;;-147.98;100.00;69253.78;4982926;28;20425;-83
2023/10/16 11:24:26;;;;;;;7.13;1.58;;;;;;;-147.98;100.00;69253.78;4965883;28;20441;-87
2023/10/16 11:26:57;;;;;;;6.20;1.85;;;;;;;-147.98;100.00;69253.78;4986767;28;20437;-84
2023/10/16 11:29:33;;;;;;;5.03;1.25;;;;;;;-147.98;100.00;69253.78;4984184;28;20440;-84
2023/10/16 11:32:09;;;;;;;5.43;1.20;;;;;;;-147.98;100.00;69253.78;4983312;28;20440;-83
2023/10/16 11:34:44;;;;;;;5.03;1.48;;;;;;;-147.98;100.00;69253.78;4973658;28;20429;-86
2023/10/16 11:37:14;;;;;;;7.93;2.28;;;;;;;-147.98;100.00;69253.78;4989032;28;20433;-85
2023/10/16 11:39:45;;;;;;;6.87;2.00;;;;;;;-147.98;100.00;69253.78;4980961;28;20512;-83
2023/10/16 11:42:18;;;;;;;15.23;6.78;;;;;;;-147.98;100.00;69253.78;4962214;28;20437;-88
2023/10/16 11:44:51;;;;;;;7.20;1.70;;;;;;;-147.98;100.00;69253.78;4980470;28;20433;-86
2023/10/16 11:47:36;;;;;;;5.50;1.23;;;;;;;-147.98;100.00;69253.78;4988282;28;20433;-83
2023/10/16 11:50:15;;;;;;;7.18;1.40;;;;;;;-147.98;100.00;69253.78;4976738;28;20413;-82
2023/10/16 11:52:50;;;;;;;6.55;1.10;;;;;;;-147.98;100.00;69253.78;4976223;28;20432;-86
2023/10/16 11:55:23;;;;;;;5.72;1.20;;;;;;;-147.98;100.00;69253.78;4980314;28;20426;-84
2023/10/16 11:57:56;;;;;;;6.95;1.20;;;;;;;-147.98;100.00;69253.78;4978738;28;20430;-85
2023/10/16 12:00:30;;;;;;;4.05;1.17;;;;;;;-147.98;100.00;69253.78;4984017;28;20902;-83
2023/10/16 12:03:07;;;;;;;3.45;1.00;;;;;;;-147.98;100.00;69253.78;4960433;28;20426;-87
2023/10/16 12:05:36;;;;;;;3.97;1.10;;;;;;;-147.98;100.00;69253.78;4977470;28;20432;-83
2023/10/16 12:08:11;;;;;;;6.30;0.90;;;;;;;-147.98;100.00;69253.78;4985228;28;20432;-82
2023/10/16 12:10:46;;;;;;;5.93;1.10;;;;;;;-147.98;100.00;69253.78;4982237;28;20423;-86
2023/10/16 12:13:15;;;;;;;6.10;1.10;;;;;;;-147.98;100.00;69253.78;4960923;28;21269;-83
2023/10/16 12:15:46;;;;;;;6.05;1.05;;;;;;;-147.98;100.00;69253.78;4979077;28;20433;-84
2023/10/16 12:18:21;;;;;;;4.55;1.10;;;;;;;-147.98;100.00;69253.78;4984274;28;20427;-82
2023/10/16 12:20:49;;;;;;;7.22;1.33;;;;;;;-147.98;100.00;69253.78;4977855;28;20455;-85
2023/10/16 12:23:24;;;;;;;3.58;1.00;;;;;;;-147.98;100.00;69253.78;4962556;28;21256;-83
2023/10/16 12:25:59;;;;;;;4.90;1.00;;;;;;;-147.98;100.00;69253.78;4981200;28;20445;-84
2023/10/16 12:28:29;;;;;;;3.67;0.95;;;;;;;-147.98;100.00;69253.78;4962131;28;20443;-88
2023/10/16 12:31:04;;;;;;;5.80;1.10;;;;;;;-147.98;100.00;69253.78;4981303;28;21035;-87
2023/10/16 12:33:37;;;;;;;5.70;1.20;;;;;;;-147.98;100.00;69253.78;4979737;28;20425;-87
2023/10/16 12:36:11;;;;;;;7.65;1.20;;;;;;;-147.98;100.00;69253.78;4982130;28;20442;-82
2023/10/16 12:38:40;;;;;;;3.95;0.90;;;;;;;-147.98;100.00;69253.78;4988817;28;20438;-86
2023/10/16 12:41:13;;;;;;;3.95;0.80;;;;;;;-147.98;100.00;69253.78;4984740;28;20439;-83
2023/10/16 12:43:43;;;;;;;4.43;0.88;;;;;;;-147.98;100.00;69253.78;4969366;28;20438;-85
2023/10/16 12:46:16;;;;;;;6.10;1.00;;;;;;;-147.98;100.00;69253.78;4985473;28;20441;-82
2023/10/16 12:48:49;;;;;;;4.30;0.85;;;;;;;-147.98;100.00;69253.78;4979495;28;21210;-84
2023/10/16 12:51:24;;;;;;;6.33;1.17;;;;;;;-147.98;100.00;69253.78;4982840;28;20433;-87
2023/10/16 12:53:55;;;;;;;6.90;1.30;;;;;;;-147.98;100.00;69253.78;4989039;28;20491;-86
2023/10/16 12:56:23;;;;;;;6.63;1.25;;;;;;;-147.98;100.00;69253.78;4971824;28;20424;-88